Time;durP1;ratioP1;P1;durP2;ratioP2;P2;SDS_P1;SDS_P2;PMS_P1;PMS_P2;Temp;Humidity;BMP_temperature;BMP_pressure;BME280_temperature;BME280_humidity;BME280_pressure;Samples;Min_cycle;Max_cycle;Signal;HPM_P1;HPM_P2
2022/08/29 00:01:46;;;;;;;6.03;1.88;;;18.80;61.80;;;;;;5075291;28;20077;-74
2022/08/29 00:04:13;;;;;;;5.65;1.65;;;18.70;62.00;;;;;;5075316;28;20017;-74
2022/08/29 00:06:39;;;;;;;4.85;1.75;;;18.50;62.50;;;;;;5074810;28;20089;-73
2022/08/29 00:09:05;;;;;;;3.83;1.95;;;18.50;62.60;;;;;;5074200;28;20104;-73
2022/08/29 00:11:31;;;;;;;3.25;1.55;;;18.50;62.50;;;;;;5075194;28;20404;-73
2022/08/29 00:13:56;;;;;;;7.70;2.17;;;18.40;63.30;;;;;;5075141;28;20029;-73
2022/08/29 00:16:22;;;;;;;5.60;1.92;;;18.40;61.80;;;;;;5074155;28;20029;-74
2022/08/29 00:18:48;;;;;;;3.60;1.70;;;18.40;61.60;;;;;;5074021;28;20025;-73
2022/08/29 00:21:13;;;;;;;4.95;1.75;;;18.20;62.10;;;;;;5075161;28;20096;-74
2022/08/29 00:23:39;;;;;;;3.45;1.83;;;18.10;62.50;;;;;;5073991;28;20025;-74
2022/08/29 00:26:05;;;;;;;7.25;2.05;;;18.10;62.20;;;;;;5074919;28;20033;-74
2022/08/29 00:28:30;;;;;;;4.80;2.10;;;18.10;62.20;;;;;;5073874;28;20024;-74
2022/08/29 00:30:56;;;;;;;6.95;2.10;;;18.00;62.50;;;;;;5057156;28;20040;-73
2022/08/29 00:33:22;;;;;;;3.45;1.52;;;17.90;62.50;;;;;;5074900;28;20032;-73
2022/08/29 00:35:47;;;;;;;5.97;2.22;;;17.90;62.30;;;;;;5074730;28;20025;-73
2022/08/29 00:38:15;;;;;;;5.13;2.45;;;17.60;62.70;;;;;;5073643;28;20472;-73
2022/08/29 00:40:45;;;;;;;3.30;1.83;;;17.50;63.00;;;;;;5073625;28;20032;-74
2022/08/29 00:43:10;;;;;;;5.05;2.00;;;17.50;63.30;;;;;;5074577;28;20060;-73
2022/08/29 00:45:42;;;;;;;5.80;2.00;;;17.50;63.10;;;;;;5074526;28;20044;-73
2022/08/29 00:48:13;;;;;;;6.03;2.13;;;17.50;63.10;;;;;;5073537;28;20032;-73
2022/08/29 00:50:41;;;;;;;4.72;2.15;;;17.50;63.00;;;;;;5074472;28;20021;-74
2022/08/29 00:53:10;;;;;;;6.93;2.40;;;17.50;63.40;;;;;;5073315;28;20052;-73
2022/08/29 00:55:38;;;;;;;5.60;1.90;;;17.50;63.10;;;;;;5074342;28;20020;-74
2022/08/29 00:58:10;;;;;;;4.35;2.13;;;17.40;63.10;;;;;;5073938;28;20109;-73
2022/08/29 01:00:37;;;;;;;5.22;2.10;;;17.30;63.10;;;;;;5074280;28;20029;-73
2022/08/29 01:03:04;;;;;;;5.43;2.30;;;17.30;63.20;;;;;;5073305;28;20021;-74
2022/08/29 01:05:31;;;;;;;4.72;1.75;;;17.30;63.40;;;;;;5074291;28;20027;-74
2022/08/29 01:07:57;;;;;;;4.72;1.98;;;17.20;63.60;;;;;;5074090;28;20055;-73
2022/08/29 01:13:09;;;;;;;4.53;1.77;;;17.10;63.50;;;;;;5074230;28;20040;-73
2022/08/29 01:15:35;;;;;;;4.22;1.80;;;16.90;64.20;;;;;;5073029;28;20029;-73
2022/08/29 01:18:02;;;;;;;4.80;2.30;;;16.90;64.30;;;;;;5073095;28;20034;-73
2022/08/29 01:20:44;;;;;;;6.88;2.45;;;16.90;64.10;;;;;;5073882;28;20081;-73
2022/08/29 01:23:25;;;;;;;3.85;1.95;;;17.00;63.50;;;;;;5073970;28;20027;-73
2022/08/29 01:25:51;;;;;;;3.85;1.95;;;17.00;64.10;;;;;;5073964;28;20024;-73
2022/08/29 01:28:22;;;;;;;12.23;2.47;;;17.00;62.80;;;;;;5073686;28;20032;-73
2022/08/29 01:31:11;;;;;;;8.77;2.70;;;17.00;63.00;;;;;;5073721;28;20024;-73
2022/08/29 01:33:41;;;;;;;4.45;1.88;;;17.00;63.20;;;;;;5073692;28;20025;-74
2022/08/29 01:36:09;;;;;;;4.10;2.15;;;16.80;63.20;;;;;;5073685;28;20029;-73
2022/08/29 01:38:35;;;;;;;3.83;2.47;;;16.80;62.90;;;;;;5073543;28;20028;-73
2022/08/29 01:41:01;;;;;;;3.83;2.40;;;16.80;63.30;;;;;;5073490;28;20029;-73
2022/08/29 01:43:28;;;;;;;5.38;2.13;;;16.70;63.20;;;;;;5073477;28;20028;-73
2022/08/29 01:45:54;;;;;;;6.35;1.90;;;16.70;63.40;;;;;;5073461;28;20021;-73
2022/08/29 01:48:21;;;;;;;3.20;2.15;;;16.50;63.60;;;;;;5073406;28;20036;-73
2022/08/29 01:50:46;;;;;;;4.47;2.13;;;16.60;64.20;;;;;;5073400;28;20029;-73
2022/08/29 01:53:13;;;;;;;4.88;2.20;;;16.70;64.00;;;;;;5073343;28;20088;-73
2022/08/29 01:55:39;;;;;;;4.00;2.03;;;16.70;63.30;;;;;;5073289;28;20030;-73
2022/08/29 01:58:06;;;;;;;6.15;2.00;;;16.60;63.00;;;;;;5072997;28;20049;-73
2022/08/29 02:00:32;;;;;;;3.92;2.00;;;16.60;62.90;;;;;;5073272;28;20021;-73
2022/08/29 02:02:59;;;;;;;4.03;1.90;;;16.50;63.20;;;;;;5073230;28;20029;-73
2022/08/29 02:05:26;;;;;;;4.93;2.00;;;16.50;63.40;;;;;;5073208;28;20025;-73
2022/08/29 02:07:53;;;;;;;4.38;2.10;;;16.50;63.50;;;;;;5073187;28;20049;-73
2022/08/29 02:10:19;;;;;;;3.85;1.90;;;16.50;63.50;;;;;;5073146;28;20031;-73
2022/08/29 02:12:44;;;;;;;4.70;2.25;;;16.40;64.00;;;;;;5073116;28;20040;-73
2022/08/29 02:15:10;;;;;;;5.57;2.30;;;16.30;63.80;;;;;;5073144;28;20025;-73
2022/08/29 02:17:37;;;;;;;3.00;2.20;;;16.30;64.20;;;;;;5073050;28;20051;-73
2022/08/29 02:20:06;;;;;;;3.90;2.15;;;16.30;64.40;;;;;;5073177;28;20030;-74
2022/08/29 02:22:32;;;;;;;7.50;2.22;;;16.20;64.90;;;;;;5073114;28;20021;-73
2022/08/29 02:24:58;;;;;;;5.28;2.35;;;16.20;65.20;;;;;;5072995;28;20051;-73
2022/08/29 02:27:24;;;;;;;3.30;2.00;;;16.20;65.00;;;;;;5073007;28;20033;-73
2022/08/29 02:29:49;;;;;;;5.85;2.20;;;16.30;64.50;;;;;;5074706;28;20029;-73
2022/08/29 02:32:15;;;;;;;3.83;2.20;;;16.00;64.50;;;;;;5077027;28;20048;-73
2022/08/29 02:34:45;;;;;;;6.65;2.38;;;15.80;65.40;;;;;;5077016;28;20048;-73
2022/08/29 02:37:11;;;;;;;4.63;1.90;;;15.80;65.60;;;;;;5076923;28;20040;-73
2022/08/29 02:39:37;;;;;;;5.47;2.13;;;15.90;65.10;;;;;;5076954;28;20041;-73
2022/08/29 02:42:03;;;;;;;5.40;2.10;;;15.90;64.80;;;;;;5077039;28;20033;-73
2022/08/29 02:44:29;;;;;;;4.43;2.20;;;15.80;65.40;;;;;;5076028;28;20028;-73
2022/08/29 02:46:55;;;;;;;4.80;2.30;;;15.80;65.40;;;;;;5076803;28;20059;-73
2022/08/29 02:49:20;;;;;;;4.57;2.15;;;16.00;65.00;;;;;;5076750;28;20089;-73
2022/08/29 02:51:46;;;;;;;5.35;2.30;;;16.10;64.90;;;;;;5075772;28;20102;-74
2022/08/29 02:54:12;;;;;;;5.13;2.35;;;16.00;64.40;;;;;;5076660;28;20033;-73
2022/08/29 02:56:38;;;;;;;4.28;2.05;;;15.90;64.60;;;;;;5076340;28;20051;-73
2022/08/29 02:59:04;;;;;;;4.75;2.13;;;15.70;64.80;;;;;;5076563;28;20047;-73
2022/08/29 03:01:30;;;;;;;4.93;2.55;;;15.70;65.50;;;;;;5076540;28;20025;-73
2022/08/29 03:03:56;;;;;;;7.18;2.45;;;15.60;65.60;;;;;;5076514;28;20030;-73
2022/08/29 03:06:22;;;;;;;5.72;2.10;;;15.60;65.80;;;;;;5076431;28;20055;-73
2022/08/29 03:08:49;;;;;;;3.80;2.30;;;15.70;65.60;;;;;;5076534;28;20032;-73
2022/08/29 03:11:16;;;;;;;4.30;2.30;;;15.60;65.30;;;;;;5076341;28;20143;-73
2022/08/29 03:13:42;;;;;;;4.68;2.22;;;15.60;65.50;;;;;;5076285;28;20025;-73
2022/08/29 03:16:08;;;;;;;3.20;1.98;;;15.70;65.00;;;;;;5076154;28;20017;-73
2022/08/29 03:18:34;;;;;;;5.28;2.33;;;15.60;65.30;;;;;;5076198;28;20089;-73
2022/08/29 03:21:00;;;;;;;6.45;2.53;;;15.60;65.30;;;;;;5075184;28;20025;-73
2022/08/29 03:23:26;;;;;;;6.03;2.78;;;15.60;65.30;;;;;;5076230;28;20021;-73
2022/08/29 03:25:52;;;;;;;5.70;2.30;;;15.60;65.90;;;;;;5075059;28;20025;-74
2022/08/29 03:28:18;;;;;;;3.75;2.25;;;15.60;66.20;;;;;;5075932;28;20027;-73
2022/08/29 03:30:44;;;;;;;4.95;2.45;;;15.30;66.40;;;;;;5075982;28;20033;-74
2022/08/29 03:33:10;;;;;;;4.38;2.20;;;15.20;67.00;;;;;;5075910;28;20081;-73
2022/08/29 03:35:35;;;;;;;5.57;2.45;;;15.30;67.20;;;;;;5075873;28;20029;-74
2022/08/29 03:38:01;;;;;;;3.78;2.17;;;15.30;67.00;;;;;;5075724;28;20037;-74
2022/08/29 03:40:27;;;;;;;4.95;2.45;;;15.40;66.80;;;;;;5075426;28;20093;-74
2022/08/29 03:42:55;;;;;;;5.50;2.63;;;15.30;66.70;;;;;;5075278;28;20029;-73
2022/08/29 03:45:21;;;;;;;4.78;2.22;;;15.40;66.70;;;;;;5075659;28;20037;-74
2022/08/29 03:47:47;;;;;;;5.60;2.28;;;15.30;66.90;;;;;;5075649;28;20029;-74
2022/08/29 03:50:14;;;;;;;3.17;2.00;;;15.40;66.60;;;;;;5075581;28;20033;-73
2022/08/29 03:52:42;;;;;;;4.95;2.40;;;15.20;66.80;;;;;;5074541;28;20033;-73
2022/08/29 03:55:09;;;;;;;4.43;2.28;;;15.30;66.70;;;;;;5075506;28;20036;-73
2022/08/29 03:57:35;;;;;;;4.70;1.92;;;15.40;66.20;;;;;;5075231;28;20052;-73
2022/08/29 04:00:09;;;;;;;5.45;2.53;;;15.50;65.80;;;;;;5075415;28;20021;-74
2022/08/29 04:02:34;;;;;;;3.70;2.00;;;15.50;65.70;;;;;;5075406;28;20021;-73
2022/08/29 04:05:06;;;;;;;8.30;2.40;;;15.40;65.90;;;;;;5075439;28;20028;-74
2022/08/29 04:07:41;;;;;;;6.45;2.10;;;15.30;65.90;;;;;;5074373;28;20093;-74
2022/08/29 04:10:09;;;;;;;4.18;2.28;;;15.20;66.20;;;;;;5075262;28;20025;-74
2022/08/29 04:12:35;;;;;;;4.63;2.50;;;15.30;66.10;;;;;;5075169;28;20027;-74
2022/08/29 04:15:01;;;;;;;5.22;2.30;;;15.30;66.20;;;;;;5074198;28;20092;-74
2022/08/29 04:17:27;;;;;;;6.07;2.50;;;15.30;66.00;;;;;;5075004;28;20029;-73
2022/08/29 04:19:53;;;;;;;4.15;2.30;;;15.20;66.20;;;;;;5075101;28;20035;-73
2022/08/29 04:22:18;;;;;;;4.75;2.35;;;15.20;66.40;;;;;;5075140;28;20026;-73
2022/08/29 04:24:44;;;;;;;3.85;2.22;;;15.20;66.80;;;;;;5074935;28;20029;-74
2022/08/29 04:27:09;;;;;;;4.78;2.00;;;15.20;66.70;;;;;;5074904;28;20113;-74
2022/08/29 04:29:37;;;;;;;4.65;2.13;;;15.30;66.60;;;;;;5073896;28;20036;-74
2022/08/29 04:32:03;;;;;;;5.03;2.10;;;15.40;67.20;;;;;;5074860;28;20016;-74
2022/08/29 04:34:29;;;;;;;6.88;2.85;;;15.40;66.40;;;;;;5074762;28;20021;-73
2022/08/29 04:36:54;;;;;;;3.60;2.20;;;15.40;66.40;;;;;;5074655;28;20116;-74
2022/08/29 04:39:20;;;;;;;5.10;2.50;;;15.30;66.50;;;;;;5074675;28;20028;-74
2022/08/29 04:41:45;;;;;;;6.80;2.50;;;15.30;66.60;;;;;;5074596;28;20083;-74
2022/08/29 04:44:12;;;;;;;6.03;2.40;;;15.40;66.50;;;;;;5074551;28;20021;-74
2022/08/29 04:46:38;;;;;;;7.35;2.55;;;15.30;66.70;;;;;;5074530;28;20033;-73
2022/08/29 04:49:04;;;;;;;7.70;2.33;;;15.40;66.80;;;;;;5074479;28;20029;-74
2022/08/29 04:51:33;;;;;;;7.07;2.53;;;15.30;66.20;;;;;;5074437;28;20088;-73
2022/08/29 04:53:58;;;;;;;4.75;2.38;;;15.20;66.20;;;;;;5073340;28;20056;-74
2022/08/29 04:56:24;;;;;;;3.33;2.15;;;15.00;66.30;;;;;;5074100;28;20041;-74
2022/08/29 04:58:50;;;;;;;4.80;2.35;;;15.00;66.50;;;;;;5074342;28;20027;-74
2022/08/29 05:01:21;;;;;;;7.47;2.95;;;15.10;66.70;;;;;;5074241;28;20017;-73
2022/08/29 05:03:47;;;;;;;4.25;2.30;;;15.20;66.80;;;;;;5073273;28;20042;-73
2022/08/29 05:06:15;;;;;;;5.70;2.40;;;15.20;66.40;;;;;;5074152;28;20041;-74
2022/08/29 05:08:42;;;;;;;5.97;2.15;;;15.00;66.40;;;;;;5074096;28;20043;-73
2022/08/29 05:11:14;;;;;;;4.78;2.65;;;15.00;66.50;;;;;;5074183;28;20029;-74
2022/08/29 05:13:40;;;;;;;4.78;2.38;;;15.00;66.40;;;;;;5074040;28;20027;-73
2022/08/29 05:16:06;;;;;;;6.03;2.70;;;15.00;66.90;;;;;;5073935;28;20048;-74
2022/08/29 05:18:32;;;;;;;5.32;2.42;;;14.90;67.20;;;;;;5073798;28;20032;-74
2022/08/29 05:20:58;;;;;;;6.00;2.40;;;14.90;67.60;;;;;;5073872;28;20029;-74
2022/08/29 05:23:24;;;;;;;6.53;2.45;;;15.00;68.40;;;;;;5073855;28;20060;-74
2022/08/29 05:25:58;;;;;;;5.25;2.42;;;15.00;67.70;;;;;;5073794;28;20021;-74
2022/08/29 05:28:28;;;;;;;5.13;2.67;;;15.00;68.00;;;;;;5073815;28;20093;-74
2022/08/29 05:30:54;;;;;;;9.10;2.50;;;15.00;68.20;;;;;;5073742;28;20025;-73
2022/08/29 05:33:20;;;;;;;5.80;2.70;;;15.00;68.30;;;;;;5073635;28;20025;-74
2022/08/29 05:35:46;;;;;;;6.65;3.08;;;15.10;68.60;;;;;;5073647;28;20032;-74
2022/08/29 05:38:13;;;;;;;5.68;2.92;;;15.20;69.20;;;;;;5073473;28;20044;-73
2022/08/29 05:40:40;;;;;;;6.43;3.33;;;15.20;69.30;;;;;;5073540;28;20017;-73
2022/08/29 05:43:08;;;;;;;7.22;2.63;;;15.20;69.50;;;;;;5073552;28;20044;-73
2022/08/29 05:45:34;;;;;;;5.63;2.90;;;15.40;69.60;;;;;;5073472;28;20026;-73
2022/08/29 05:48:03;;;;;;;7.45;3.40;;;15.50;69.70;;;;;;5073414;28;20035;-73
2022/08/29 05:50:29;;;;;;;5.97;3.25;;;15.50;69.70;;;;;;5073289;28;20017;-73
2022/08/29 05:52:54;;;;;;;6.05;2.85;;;15.40;70.20;;;;;;5073368;28;20060;-73
2022/08/29 05:55:20;;;;;;;6.97;3.45;;;15.30;70.70;;;;;;5073315;28;20033;-73
2022/08/29 05:57:48;;;;;;;5.18;2.63;;;15.40;71.20;;;;;;5073047;28;20073;-73
2022/08/29 06:00:15;;;;;;;5.22;2.70;;;15.40;70.90;;;;;;5073281;28;20017;-73
2022/08/29 06:02:40;;;;;;;6.63;3.03;;;15.50;71.30;;;;;;5073259;28;20021;-73
2022/08/29 06:05:06;;;;;;;5.22;3.10;;;15.50;71.40;;;;;;5072797;28;20029;-73
2022/08/29 06:07:32;;;;;;;6.35;2.72;;;15.60;71.20;;;;;;5073208;28;20032;-73
2022/08/29 06:10:00;;;;;;;5.72;2.83;;;15.60;71.50;;;;;;5073169;28;20055;-73
2022/08/29 06:12:26;;;;;;;6.45;3.15;;;15.60;71.70;;;;;;5073154;28;20048;-73
2022/08/29 06:14:52;;;;;;;4.47;3.05;;;15.80;71.60;;;;;;5073144;28;20036;-73
2022/08/29 06:17:18;;;;;;;9.93;3.60;;;15.80;71.60;;;;;;5073042;28;20029;-73
2022/08/29 06:19:43;;;;;;;6.93;3.15;;;16.00;71.30;;;;;;5073180;28;20021;-73
2022/08/29 06:22:09;;;;;;;8.70;3.20;;;16.00;71.20;;;;;;5073052;28;20067;-73
2022/08/29 06:24:35;;;;;;;11.18;3.22;;;16.10;71.60;;;;;;5073074;28;20028;-74
2022/08/29 06:27:01;;;;;;;5.95;3.15;;;16.20;71.50;;;;;;5072976;28;20065;-74
2022/08/29 06:29:29;;;;;;;7.70;2.90;;;16.30;71.50;;;;;;5072974;28;20024;-74
2022/08/29 06:31:56;;;;;;;8.30;3.03;;;16.40;71.30;;;;;;5072966;28;20056;-74
2022/08/29 06:34:22;;;;;;;7.68;3.30;;;16.50;71.10;;;;;;5072922;28;20078;-74
2022/08/29 06:36:50;;;;;;;6.40;2.88;;;16.50;71.60;;;;;;5072850;28;20040;-74
2022/08/29 06:39:16;;;;;;;4.60;2.92;;;16.60;71.20;;;;;;5072877;28;20029;-74
2022/08/29 06:41:42;;;;;;;6.45;2.88;;;16.70;70.90;;;;;;5072873;28;20025;-74
2022/08/29 06:44:08;;;;;;;7.60;3.42;;;16.80;70.40;;;;;;5072850;28;20051;-74
2022/08/29 06:46:37;;;;;;;5.28;3.40;;;16.90;70.20;;;;;;5072957;28;20025;-74
2022/08/29 06:49:05;;;;;;;8.68;3.38;;;16.90;70.00;;;;;;5072840;28;20021;-74
2022/08/29 06:51:34;;;;;;;9.60;3.15;;;17.00;69.70;;;;;;5072949;28;20085;-74
2022/08/29 06:54:02;;;;;;;6.70;3.28;;;17.00;69.80;;;;;;5072790;28;20025;-74
2022/08/29 06:56:28;;;;;;;8.65;3.38;;;17.10;69.80;;;;;;5072462;28;20179;-74
2022/08/29 06:58:54;;;;;;;8.65;3.90;;;17.20;69.70;;;;;;5072749;28;20021;-74
2022/08/29 07:01:20;;;;;;;9.93;3.63;;;17.20;69.70;;;;;;5072649;28;20055;-73
2022/08/29 07:03:46;;;;;;;7.10;3.75;;;17.20;70.20;;;;;;5072656;28;20029;-74
2022/08/29 07:06:12;;;;;;;9.35;3.88;;;17.30;69.90;;;;;;5072629;28;20028;-74
2022/08/29 07:08:39;;;;;;;5.70;3.40;;;17.30;69.40;;;;;;5072623;28;20035;-74
2022/08/29 07:11:05;;;;;;;8.63;3.03;;;17.40;70.30;;;;;;5072580;28;20032;-74
2022/08/29 07:13:33;;;;;;;6.30;3.65;;;17.40;69.60;;;;;;5072586;28;20036;-74
2022/08/29 07:15:59;;;;;;;8.55;3.70;;;17.40;69.60;;;;;;5072849;28;20025;-74
2022/08/29 07:18:24;;;;;;;7.70;3.70;;;17.40;69.60;;;;;;5076122;28;20028;-74
2022/08/29 07:20:51;;;;;;;6.93;3.90;;;17.50;69.40;;;;;;5076153;28;20036;-74
2022/08/29 07:23:17;;;;;;;7.38;4.00;;;17.50;69.30;;;;;;5076129;28;20026;-74
2022/08/29 07:25:42;;;;;;;8.77;4.22;;;17.50;68.80;;;;;;5076066;28;20033;-74
2022/08/29 07:28:08;;;;;;;9.25;3.60;;;17.60;68.60;;;;;;5075940;28;20037;-74
2022/08/29 07:30:33;;;;;;;6.30;3.58;;;17.60;68.50;;;;;;5075993;28;20029;-74
2022/08/29 07:32:59;;;;;;;6.95;3.90;;;17.70;68.50;;;;;;5075936;28;20024;-74
2022/08/29 07:35:25;;;;;;;7.55;3.90;;;17.70;68.60;;;;;;5075918;28;20040;-73
2022/08/29 07:37:55;;;;;;;6.50;4.15;;;17.70;68.50;;;;;;5075795;28;20047;-74
2022/08/29 07:40:21;;;;;;;12.13;4.30;;;17.70;68.20;;;;;;5075957;28;20028;-74
2022/08/29 07:42:46;;;;;;;8.85;3.97;;;17.80;68.10;;;;;;5075806;28;20021;-74
2022/08/29 07:45:13;;;;;;;7.82;3.95;;;17.80;67.70;;;;;;5075716;28;20052;-74
2022/08/29 07:47:39;;;;;;;6.95;3.58;;;17.90;67.40;;;;;;5074675;28;20021;-74
2022/08/29 07:50:08;;;;;;;8.23;4.28;;;18.10;67.40;;;;;;5075602;28;20129;-74
2022/08/29 07:52:34;;;;;;;8.77;4.10;;;18.20;67.20;;;;;;5075547;28;20052;-74
2022/08/29 07:54:59;;;;;;;10.15;3.60;;;18.30;66.70;;;;;;5075539;28;20032;-74
2022/08/29 07:57:25;;;;;;;10.93;3.85;;;18.30;66.70;;;;;;5075190;28;20057;-73
2022/08/29 07:59:51;;;;;;;11.65;3.80;;;18.50;67.00;;;;;;5075402;28;20361;-74
2022/08/29 08:02:16;;;;;;;8.15;3.10;;;18.60;66.50;;;;;;5075384;28;20089;-74
2022/08/29 08:04:42;;;;;;;8.63;3.13;;;18.80;64.80;;;;;;5075481;28;20025;-74
2022/08/29 08:07:09;;;;;;;8.65;2.67;;;18.90;64.70;;;;;;5075259;28;20033;-74
2022/08/29 08:09:36;;;;;;;8.48;2.53;;;19.00;61.80;;;;;;5075253;28;20036;-74
2022/08/29 08:12:02;;;;;;;7.65;2.72;;;19.10;63.40;;;;;;5075209;28;20051;-74
2022/08/29 08:14:28;;;;;;;9.75;2.88;;;19.10;63.00;;;;;;5075154;28;20048;-74
2022/08/29 08:16:53;;;;;;;7.28;2.78;;;19.20;62.50;;;;;;5075020;28;20033;-74
2022/08/29 08:19:19;;;;;;;5.75;2.35;;;19.30;62.10;;;;;;5075051;28;20029;-74
2022/08/29 08:21:45;;;;;;;6.30;2.85;;;19.40;61.50;;;;;;5075178;28;20036;-74
2022/08/29 08:24:10;;;;;;;5.03;2.50;;;19.40;60.50;;;;;;5074975;28;20025;-73
2022/08/29 08:26:36;;;;;;;11.57;2.60;;;19.50;59.90;;;;;;5074812;28;20041;-74
2022/08/29 08:29:02;;;;;;;6.20;2.10;;;19.50;60.10;;;;;;5074606;28;20025;-74
2022/08/29 08:31:27;;;;;;;4.55;2.05;;;19.60;60.30;;;;;;5074840;28;20021;-74
2022/08/29 08:33:53;;;;;;;7.30;1.92;;;19.60;59.60;;;;;;5073957;28;20040;-73
2022/08/29 08:36:26;;;;;;;4.32;2.00;;;19.70;58.80;;;;;;5074686;28;20046;-74
2022/08/29 08:38:53;;;;;;;4.03;1.70;;;19.70;57.40;;;;;;5074795;28;20031;-74
2022/08/29 08:41:56;;;;;;;7.03;2.22;;;19.80;58.60;;;;;;5074652;28;20028;-74
2022/08/29 08:44:22;;;;;;;;;;;20.00;58.30;;;;;;5056747;28;20111;-73
2022/08/29 08:46:52;;;;;;;5.20;1.98;;;20.00;57.40;;;;;;5074520;28;19905;-73
2022/08/29 08:49:21;;;;;;;5.75;1.77;;;20.00;57.20;;;;;;5074500;28;20028;-73
2022/08/29 08:51:53;;;;;;;4.55;2.00;;;20.00;56.20;;;;;;5074596;28;20021;-73
2022/08/29 08:54:33;;;;;;;5.50;1.70;;;20.00;56.00;;;;;;5074518;28;20484;-74
2022/08/29 08:57:17;;;;;;;6.18;2.10;;;20.10;56.50;;;;;;5074126;28;20068;-74
2022/08/29 08:59:45;;;;;;;3.70;1.65;;;20.10;55.80;;;;;;5074502;28;20017;-74
2022/08/29 09:02:47;;;;;;;5.07;2.00;;;20.10;56.30;;;;;;5074176;28;20025;-74
2022/08/29 09:05:26;;;;;;;4.68;2.08;;;20.20;56.10;;;;;;5074399;28;20025;-74
2022/08/29 09:08:12;;;;;;;4.88;2.22;;;20.20;56.10;;;;;;5074330;28;20024;-74
2022/08/29 09:10:55;;;;;;;4.22;2.00;;;20.30;56.10;;;;;;5074227;28;20025;-74
2022/08/29 09:13:37;;;;;;;6.75;2.20;;;20.40;55.30;;;;;;5074189;28;20025;-74
2022/08/29 09:16:16;;;;;;;4.20;2.10;;;20.40;55.50;;;;;;5074196;28;20108;-74
2022/08/29 09:18:43;;;;;;;4.32;2.00;;;20.40;55.50;;;;;;5072997;28;20035;-74
2022/08/29 09:21:22;;;;;;;4.15;1.95;;;20.40;56.50;;;;;;5073943;28;20017;-74
2022/08/29 09:23:58;;;;;;;3.65;1.70;;;20.40;55.40;;;;;;5073838;28;20021;-74
2022/08/29 09:26:26;;;;;;;5.20;2.25;;;20.30;55.40;;;;;;5073849;28;20021;-74
2022/08/29 09:28:52;;;;;;;4.22;1.77;;;20.30;55.40;;;;;;5073699;28;20029;-74
2022/08/29 09:31:25;;;;;;;4.78;2.00;;;20.30;55.20;;;;;;5072734;28;20049;-74
2022/08/29 09:34:00;;;;;;;5.43;2.47;;;20.40;55.60;;;;;;5073877;28;20022;-74
2022/08/29 09:36:39;;;;;;;5.32;1.83;;;20.50;53.90;;;;;;5073595;28;20025;-74
2022/08/29 09:39:30;;;;;;;4.47;1.80;;;20.60;54.80;;;;;;5073116;28;20108;-74
2022/08/29 09:42:23;;;;;;;4.68;1.80;;;20.70;55.40;;;;;;5073537;28;20028;-74
2022/08/29 09:45:01;;;;;;;3.17;1.60;;;20.70;54.80;;;;;;5072311;28;20029;-74
2022/08/29 09:47:29;;;;;;;5.75;1.80;;;20.80;54.60;;;;;;5073486;28;20055;-74
2022/08/29 09:50:05;;;;;;;4.72;2.20;;;20.90;53.90;;;;;;5073459;28;20048;-74
2022/08/29 09:52:31;;;;;;;4.82;1.77;;;20.80;54.20;;;;;;5072414;28;20439;-74
2022/08/29 09:54:56;;;;;;;4.00;1.75;;;20.90;54.30;;;;;;5073374;28;20033;-74
2022/08/29 09:57:26;;;;;;;6.07;2.00;;;20.90;54.70;;;;;;5073084;28;20045;-74
2022/08/29 10:00:14;;;;;;;4.53;1.95;;;21.00;54.10;;;;;;5073532;28;20045;-74
2022/08/29 10:02:52;;;;;;;4.30;1.90;;;21.00;53.60;;;;;;5073262;28;20028;-74
2022/08/29 10:05:26;;;;;;;4.47;1.75;;;20.90;52.90;;;;;;5073212;28;20052;-74
2022/08/29 10:07:52;;;;;;;5.80;1.85;;;21.00;53.40;;;;;;5073213;28;20025;-74
2022/08/29 10:10:24;;;;;;;5.75;2.08;;;20.90;54.00;;;;;;5073158;28;20035;-73
2022/08/29 10:13:14;;;;;;;;;;;20.90;53.90;;;;;;5073773;28;20373;-74
2022/08/29 10:15:45;;;;;;;5.60;1.85;;;20.90;54.20;;;;;;5073176;28;19954;-73
2022/08/29 10:18:33;;;;;;;7.32;1.98;;;20.90;54.40;;;;;;5073049;28;20045;-73
2022/08/29 10:21:09;;;;;;;4.75;1.90;;;20.90;53.80;;;;;;5072144;28;20080;-73
2022/08/29 10:23:44;;;;;;;3.88;1.70;;;20.90;54.50;;;;;;5073115;28;20028;-73
2022/08/29 10:26:34;;;;;;;6.80;1.80;;;20.90;54.10;;;;;;5073059;28;20021;-73
2022/08/29 10:29:09;;;;;;;6.65;2.20;;;20.90;55.10;;;;;;5072961;28;20017;-73
2022/08/29 10:31:42;;;;;;;3.80;1.67;;;21.00;54.70;;;;;;5072095;28;20096;-73
2022/08/29 10:34:25;;;;;;;3.20;1.65;;;21.20;54.90;;;;;;5071946;28;20059;-73
2022/08/29 10:37:06;;;;;;;5.97;1.92;;;21.30;54.30;;;;;;5073066;28;20381;-73
2022/08/29 10:39:53;;;;;;;5.65;2.05;;;21.30;54.10;;;;;;5071977;28;20013;-73
2022/08/29 10:42:22;;;;;;;3.90;1.73;;;21.30;53.20;;;;;;5072937;28;20044;-73
2022/08/29 10:45:24;;;;;;;6.90;2.15;;;21.30;52.10;;;;;;5073004;28;20025;-73
2022/08/29 10:48:09;;;;;;;4.22;1.70;;;21.20;52.00;;;;;;5072905;28;20043;-73
2022/08/29 10:50:49;;;;;;;3.60;1.73;;;21.30;53.50;;;;;;5074147;28;20047;-73
2022/08/29 10:53:30;;;;;;;5.32;2.20;;;21.40;53.00;;;;;;5076905;28;20051;-74
2022/08/29 10:56:04;;;;;;;4.47;1.70;;;21.40;51.30;;;;;;5076746;28;20047;-73
2022/08/29 10:59:00;;;;;;;3.92;1.83;;;21.40;52.00;;;;;;5075573;28;20037;-73
2022/08/29 11:01:35;;;;;;;5.47;2.20;;;21.40;52.40;;;;;;5076618;28;20033;-73
2022/08/29 11:04:03;;;;;;;5.07;2.15;;;21.50;52.90;;;;;;5075627;28;20116;-73
2022/08/29 11:06:36;;;;;;;4.13;2.28;;;21.60;52.70;;;;;;5076448;28;20017;-73
2022/08/29 11:09:20;;;;;;;5.38;2.10;;;21.60;51.90;;;;;;5076516;28;20037;-73
2022/08/29 11:12:09;;;;;;;4.50;1.92;;;21.70;51.70;;;;;;5076547;28;20024;-73
2022/08/29 11:14:55;;;;;;;5.03;1.80;;;21.90;50.80;;;;;;5076286;28;20100;-73
2022/08/29 11:17:25;;;;;;;5.35;1.70;;;22.00;51.60;;;;;;5076219;28;20032;-73
2022/08/29 11:20:01;;;;;;;5.13;1.75;;;22.10;50.90;;;;;;5076314;28;20017;-73
2022/08/29 11:22:36;;;;;;;7.15;2.15;;;22.20;50.20;;;;;;5076218;28;20017;-73
2022/08/29 11:25:08;;;;;;;5.70;1.70;;;22.20;50.50;;;;;;5075170;28;20120;-73
2022/08/29 11:27:50;;;;;;;5.60;1.95;;;22.40;50.70;;;;;;5076078;28;20033;-73
2022/08/29 11:30:25;;;;;;;3.85;1.90;;;22.60;50.60;;;;;;5076182;28;20029;-73
2022/08/29 11:33:02;;;;;;;3.85;1.55;;;22.70;51.30;;;;;;5076063;28;20040;-73
2022/08/29 11:36:06;;;;;;;4.65;1.75;;;22.90;50.60;;;;;;5075983;28;20016;-73
2022/08/29 11:38:54;;;;;;;4.70;1.75;;;23.00;49.70;;;;;;5075741;28;20025;-73
2022/08/29 11:41:27;;;;;;;5.95;1.90;;;22.80;49.80;;;;;;5075853;28;20047;-73
2022/08/29 11:44:02;;;;;;;3.92;1.90;;;22.70;49.90;;;;;;5074823;28;20029;-73
2022/08/29 11:46:36;;;;;;;3.53;1.83;;;22.60;50.50;;;;;;5075802;28;20045;-73
2022/08/29 11:49:24;;;;;;;3.33;1.50;;;22.50;50.40;;;;;;5075738;28;20071;-74
2022/08/29 11:51:55;;;;;;;4.45;1.90;;;22.60;51.90;;;;;;5075643;28;20358;-74
2022/08/29 11:54:23;;;;;;;7.30;1.77;;;22.70;51.30;;;;;;5074729;28;20017;-74
2022/08/29 11:56:50;;;;;;;4.30;1.90;;;22.80;50.90;;;;;;5075156;28;20055;-74
2022/08/29 11:59:44;;;;;;;7.80;2.05;;;22.80;50.50;;;;;;5074589;28;20025;-73
2022/08/29 12:02:30;;;;;;;5.30;1.98;;;22.80;49.50;;;;;;5074916;28;20056;-74
2022/08/29 12:05:28;;;;;;;3.17;1.75;;;22.60;50.50;;;;;;5075459;28;20036;-73
2022/08/29 12:08:02;;;;;;;5.05;2.15;;;22.50;50.40;;;;;;5052161;28;20492;-74
2022/08/29 12:10:49;;;;;;;3.13;2.13;;;22.50;51.00;;;;;;5074338;28;20013;-74
2022/08/29 12:13:43;;;;;;;5.82;2.25;;;22.60;51.10;;;;;;5075317;28;20025;-74
2022/08/29 12:16:10;;;;;;;4.82;2.17;;;22.80;51.30;;;;;;5075161;28;20028;-74
2022/08/29 12:18:47;;;;;;;6.43;1.85;;;23.00;50.50;;;;;;5074060;28;20108;-74
2022/08/29 12:21:38;;;;;;;4.60;2.00;;;23.20;50.10;;;;;;5075280;28;20029;-74
2022/08/29 12:24:24;;;;;;;5.82;2.35;;;23.30;49.30;;;;;;5075212;28;20056;-74
2022/08/29 12:26:50;;;;;;;6.38;1.50;;;23.20;48.60;;;;;;5075029;28;20077;-73
2022/08/29 12:29:33;;;;;;;6.95;1.95;;;23.20;48.80;;;;;;5073914;28;20081;-73
2022/08/29 12:32:05;;;;;;;6.43;2.28;;;23.40;47.90;;;;;;5074979;28;20089;-73
2022/08/29 12:34:59;;;;;;;4.85;2.00;;;23.40;46.60;;;;;;5074907;28;20032;-73
2022/08/29 12:37:49;;;;;;;3.60;1.92;;;23.50;46.80;;;;;;5074781;28;20064;-73
2022/08/29 12:40:22;;;;;;;3.47;1.63;;;23.60;47.40;;;;;;5074751;28;20025;-73
2022/08/29 12:43:22;;;;;;;5.43;2.00;;;23.80;46.70;;;;;;5073712;28;20040;-73
2022/08/29 12:45:48;;;;;;;5.72;2.25;;;24.10;46.40;;;;;;5073797;28;20017;-73
2022/08/29 12:48:24;;;;;;;6.60;1.92;;;24.10;44.60;;;;;;5074524;28;20025;-73
2022/08/29 12:50:50;;;;;;;5.18;1.80;;;24.10;44.90;;;;;;5074657;28;20108;-73
2022/08/29 12:53:34;;;;;;;4.63;2.15;;;24.20;45.10;;;;;;5074463;28;20040;-73
2022/08/29 12:56:15;;;;;;;4.20;1.77;;;24.30;44.90;;;;;;5074470;28;20036;-73
2022/08/29 12:58:45;;;;;;;6.43;2.00;;;24.50;43.60;;;;;;5074316;28;20041;-73
2022/08/29 13:01:36;;;;;;;5.68;1.80;;;24.70;43.70;;;;;;5073300;28;20032;-73
2022/08/29 13:04:16;;;;;;;4.78;1.70;;;24.70;43.30;;;;;;5074289;28;20013;-73
2022/08/29 13:07:04;;;;;;;3.60;2.00;;;24.60;44.00;;;;;;5074252;28;20025;-73
2022/08/29 13:09:33;;;;;;;4.20;1.75;;;24.40;42.90;;;;;;5074155;28;20081;-73